GBYD/BJL METAR and TAF weather

Enter ICAO airport designator
Station Type Date Time Source
GBYD METAR 2022/01/26 07:00 UTC NOAA

GBYD 260700Z 04005KT CAVOK 23/05 Q1010


Station Type Date Time Source
GBYD Decoded METAR 2022/01/26 07:00 UTC NOAA

Banjul / Yundum, Gambia, The (GBYD) 13-21N 016-48W 36M
Jan 26, 2022 - 02:00 AM EST / 2022.01.26 0700 UTC
Wind: from the NE (040 degrees) at 6 MPH (5 KT):0
Visibility: greater than 7 mile(s):0
Temperature: 73 F (23 C)
Dew Point: 41 F (5 C)
Relative Humidity: 31%
Pressure (altimeter): 29.83 in. Hg (1010 hPa)
ob: GBYD 260700Z 04005KT CAVOK 23/05 Q1010
cycle: 7

Station Type Date Time Source
GBYD TAF 2022/01/26 06:21 UTC NOAA

TAF TAF GBYD 260530Z 2606/2712 04008KT CAVOK

Example: see airport list